createdAt,value
2019-02-28T00:01:40.135Z,76.71
2019-02-28T00:05:42.205Z,76.41
2019-02-28T00:09:44.249Z,76.92
2019-02-28T00:13:46.135Z,76.87
2019-02-28T00:17:48.042Z,76.66
2019-02-28T00:21:49.937Z,76.69
2019-02-28T00:25:52.861Z,76.85
2019-02-28T00:29:54.748Z,76.66
2019-02-28T00:33:56.635Z,76.97
2019-02-28T00:37:58.599Z,76.95
2019-02-28T00:42:00.502Z,77.19
2019-02-28T00:46:02.421Z,77.29
2019-02-28T00:50:05.346Z,77.19
2019-02-28T00:54:08.684Z,77.26
2019-02-28T00:58:10.904Z,77.39
2019-02-28T01:02:12.884Z,77.10
2019-02-28T01:06:14.768Z,77.71
2019-02-28T01:10:17.082Z,77.48
2019-02-28T01:14:19.005Z,77.70
2019-02-28T01:18:20.955Z,77.44
2019-02-28T01:22:22.859Z,77.45
2019-02-28T01:26:24.763Z,77.12
2019-02-28T01:30:26.738Z,77.31
2019-02-28T01:34:32.061Z,77.25
2019-02-28T01:38:32.704Z,77.44
2019-02-28T01:42:34.673Z,77.84
2019-02-28T01:46:36.572Z,77.99
2019-02-28T01:50:38.501Z,77.63
2019-02-28T01:54:41.378Z,78.50
2019-02-28T01:58:43.280Z,78.35
2019-02-28T02:02:45.202Z,78.39
2019-02-28T02:06:47.456Z,78.58
2019-02-28T02:10:49.448Z,78.76
2019-02-28T02:14:53.045Z,79.31
2019-02-28T02:18:54.959Z,79.71
2019-02-28T02:22:56.890Z,79.82
2019-02-28T02:26:58.810Z,79.77
2019-02-28T02:36:23.839Z,79.55
2019-02-28T02:40:25.759Z,79.31
2019-02-28T02:44:31.774Z,79.06
2019-02-28T02:48:31.275Z,79.06
2019-02-28T02:52:33.200Z,79.05
2019-02-28T02:56:40.668Z,79.08
2019-02-28T03:00:38.719Z,78.72
2019-02-28T03:04:40.672Z,79.33
2019-02-28T03:08:42.583Z,80.22
2019-02-28T03:12:44.668Z,80.52
2019-02-28T03:16:46.582Z,80.68
2019-02-28T03:20:48.506Z,80.06
2019-02-28T03:24:52.072Z,79.86
2019-02-28T03:28:55.265Z,80.09
2019-02-28T03:32:57.166Z,80.27
2019-02-28T03:36:59.078Z,80.18
2019-02-28T03:41:01.446Z,79.46
2019-02-28T03:45:03.836Z,79.93
2019-02-28T03:49:11.015Z,80.04
2019-02-28T03:53:09.411Z,79.86
2019-02-28T03:57:11.395Z,79.80
2019-02-28T04:01:13.376Z,79.53
2019-02-28T04:05:15.290Z,79.83
2019-02-28T04:09:17.207Z,79.75
2019-02-28T04:13:20.318Z,79.85
2019-02-28T04:17:22.317Z,79.98
2019-02-28T04:21:24.234Z,80.31
2019-02-28T04:25:26.284Z,80.33
2019-02-28T04:29:31.124Z,80.14
2019-02-28T04:33:37.352Z,80.08
2019-02-28T04:37:35.416Z,80.77
2019-02-28T04:41:37.332Z,80.96
2019-02-28T04:45:39.238Z,80.87
2019-02-28T04:49:41.144Z,80.63
2019-02-28T04:53:43.072Z,80.64
2019-02-28T04:57:44.994Z,80.32
2019-02-28T05:01:46.924Z,80.90
2019-02-28T05:05:48.876Z,80.46
2019-02-28T05:09:50.780Z,80.37
2019-02-28T05:13:52.704Z,80.44
2019-02-28T05:17:55.850Z,80.96
2019-02-28T05:21:58.247Z,81.23
2019-02-28T05:26:00.332Z,81.12
2019-02-28T05:30:02.245Z,81.23
2019-02-28T05:34:04.494Z,81.52
2019-02-28T05:38:06.414Z,81.77
2019-02-28T05:42:08.328Z,81.80
2019-02-28T05:46:10.303Z,81.76
2019-02-28T05:50:16.598Z,82.07
2019-02-28T05:54:17.235Z,81.90
2019-02-28T05:58:20.854Z,82.00
2019-02-28T06:02:23.348Z,81.99
2019-02-28T06:06:26.629Z,81.57
2019-02-28T06:10:29.500Z,81.98
2019-02-28T06:14:31.410Z,81.96
2019-02-28T06:18:33.600Z,81.87
2019-02-28T06:22:36.300Z,82.07
2019-02-28T06:26:38.326Z,82.22
2019-02-28T06:30:41.452Z,81.93
2019-02-28T06:34:43.841Z,82.44
2019-02-28T06:38:45.766Z,82.41
2019-02-28T06:42:47.795Z,82.30
2019-02-28T06:46:49.690Z,82.30
2019-02-28T06:50:51.593Z,82.62
2019-02-28T06:54:54.340Z,83.02
2019-02-28T06:58:56.412Z,82.85
2019-02-28T07:02:58.334Z,82.95
2019-02-28T07:07:00.261Z,83.26
2019-02-28T07:11:02.181Z,83.61
2019-02-28T07:15:04.836Z,84.14
2019-02-28T07:19:06.755Z,84.68
2019-02-28T07:23:08.682Z,85.02
2019-02-28T07:27:10.608Z,85.34
2019-02-28T07:31:12.518Z,85.92
2019-02-28T07:35:14.786Z,86.25
2019-02-28T07:39:16.761Z,86.37
2019-02-28T07:43:19.371Z,86.14
2019-02-28T07:47:21.328Z,84.70
2019-02-28T07:51:26.172Z,80.88
2019-02-28T07:55:27.343Z,75.44
2019-02-28T07:59:30.466Z,73.43
2019-02-28T08:03:32.414Z,68.46
2019-02-28T08:07:34.329Z,65.67
2019-02-28T08:11:36.255Z,65.22
2019-02-28T08:15:38.323Z,61.94
2019-02-28T08:19:40.250Z,61.05
2019-02-28T08:23:42.145Z,59.35
2019-02-28T08:27:44.140Z,58.57
2019-02-28T08:31:46.053Z,56.88
2019-02-28T08:35:49.031Z,56.43
2019-02-28T08:39:50.946Z,56.61
2019-02-28T08:43:52.871Z,55.23
2019-02-28T08:47:56.764Z,55.30
2019-02-28T08:51:58.412Z,54.45
2019-02-28T08:56:00.315Z,53.57
2019-02-28T09:00:02.259Z,55.82
2019-02-28T09:04:05.857Z,52.47
2019-02-28T09:08:07.811Z,53.08
2019-02-28T09:12:09.864Z,53.32
2019-02-28T09:16:11.779Z,52.03
2019-02-28T09:20:17.499Z,52.84
2019-02-28T09:24:19.456Z,52.99
2019-02-28T09:28:21.386Z,51.49
2019-02-28T09:32:23.356Z,50.58
2019-02-28T09:36:25.272Z,50.54
2019-02-28T09:40:29.460Z,50.75
2019-02-28T09:44:31.754Z,50.57
2019-02-28T09:48:37.218Z,49.25
2019-02-28T09:52:41.253Z,48.84
2019-02-28T09:56:44.505Z,49.07
2019-02-28T10:00:49.289Z,48.69
2019-02-28T10:04:50.021Z,48.43
2019-02-28T10:08:51.947Z,47.82
2019-02-28T10:12:53.877Z,47.15
2019-02-28T10:16:55.787Z,46.90
2019-02-28T10:20:58.970Z,47.21
2019-02-28T10:25:03.553Z,47.26
2019-02-28T10:29:07.450Z,47.73
2019-02-28T10:33:09.234Z,46.21
2019-02-28T10:37:11.147Z,45.91
2019-02-28T10:41:15.373Z,45.21
2019-02-28T10:45:17.669Z,44.17
2019-02-28T10:49:21.094Z,43.88
2019-02-28T10:53:23.368Z,44.05
2019-02-28T10:57:25.282Z,43.92
2019-02-28T11:01:27.208Z,42.57
2019-02-28T11:05:35.065Z,42.69
2019-02-28T11:09:36.995Z,42.26
2019-02-28T11:13:57.723Z,41.92
2019-02-28T11:18:09.760Z,41.67
2019-02-28T11:22:11.992Z,40.90
2019-02-28T11:26:13.986Z,40.87
2019-02-28T11:30:31.663Z,39.54
2019-02-28T11:34:34.667Z,39.46
2019-02-28T11:38:36.594Z,39.75
2019-02-28T11:42:38.566Z,40.22
2019-02-28T11:46:40.509Z,38.97
2019-02-28T11:50:44.944Z,39.23
2019-02-28T11:54:46.332Z,39.27
2019-02-28T11:58:51.476Z,39.97
2019-02-28T12:02:53.522Z,38.41
2019-02-28T12:06:57.384Z,39.17
2019-02-28T12:11:01.925Z,38.67
2019-02-28T12:15:05.987Z,37.53
2019-02-28T12:19:07.755Z,36.71
2019-02-28T12:23:09.756Z,37.55
2019-02-28T12:27:11.688Z,37.92
2019-02-28T12:31:14.091Z,38.06
2019-02-28T12:35:16.191Z,37.15
2019-02-28T12:39:18.155Z,37.21
2019-02-28T12:43:20.075Z,37.93
2019-02-28T12:47:22.776Z,38.08
2019-02-28T12:51:24.709Z,37.30
2019-02-28T12:55:26.629Z,37.33
2019-02-28T12:59:28.556Z,36.19
2019-02-28T13:03:30.468Z,35.71
2019-02-28T13:07:33.915Z,35.29
2019-02-28T13:11:36.543Z,33.94
2019-02-28T13:15:38.531Z,34.03
2019-02-28T13:19:40.468Z,33.92
2019-02-28T13:23:42.455Z,34.27
2019-02-28T13:27:45.242Z,34.83
2019-02-28T13:31:49.049Z,34.33
2019-02-28T13:35:51.000Z,34.95
2019-02-28T13:39:53.000Z,34.71
2019-02-28T13:43:59.220Z,35.77
2019-02-28T13:47:58.548Z,35.71
2019-02-28T13:52:00.541Z,34.44
2019-02-28T13:56:04.935Z,33.94
2019-02-28T14:00:14.493Z,33.35
2019-02-28T14:04:19.395Z,32.85
2019-02-28T14:08:20.322Z,32.55
2019-02-28T14:12:22.417Z,32.23
2019-02-28T14:16:26.932Z,32.23
2019-02-28T14:20:28.486Z,32.48
2019-02-28T14:24:32.015Z,32.99
2019-02-28T14:28:35.613Z,32.99
2019-02-28T14:32:38.684Z,31.85
2019-02-28T14:36:41.824Z,32.64
2019-02-28T14:40:45.201Z,33.29
2019-02-28T14:44:47.117Z,34.28
2019-02-28T14:48:49.044Z,35.50
2019-02-28T14:52:54.295Z,36.25
2019-02-28T14:56:56.220Z,36.85
2019-02-28T15:00:58.149Z,37.96
2019-02-28T15:05:00.057Z,38.15
2019-02-28T15:09:01.993Z,37.35
2019-02-28T15:13:05.875Z,37.69
2019-02-28T15:17:07.816Z,36.79
2019-02-28T15:21:09.717Z,37.23
2019-02-28T15:25:21.016Z,36.62
2019-02-28T15:29:23.384Z,37.26
2019-02-28T15:33:27.459Z,37.97
2019-02-28T15:37:33.373Z,38.50
2019-02-28T15:41:35.016Z,38.52
2019-02-28T15:45:37.542Z,39.48
2019-02-28T15:49:41.768Z,40.00
2019-02-28T15:53:43.168Z,40.11
2019-02-28T15:57:45.352Z,40.97
2019-02-28T16:01:47.300Z,41.65
2019-02-28T16:05:49.239Z,41.81
2019-02-28T16:09:54.161Z,41.91
2019-02-28T16:13:57.465Z,42.30
2019-02-28T16:17:58.950Z,42.57
2019-02-28T16:22:01.664Z,43.35
2019-02-28T16:26:04.060Z,43.45
2019-02-28T16:30:13.711Z,43.93
2019-02-28T16:34:15.730Z,44.53
2019-02-28T16:38:17.677Z,44.98
2019-02-28T16:42:19.694Z,45.37
2019-02-28T16:46:21.797Z,45.92
2019-02-28T16:50:23.794Z,46.33
2019-02-28T16:54:27.788Z,46.73
2019-02-28T16:58:29.374Z,47.10
2019-02-28T17:02:31.305Z,47.58
2019-02-28T17:06:35.658Z,47.69
2019-02-28T17:10:40.052Z,48.41
2019-02-28T17:14:41.795Z,48.94
2019-02-28T17:18:43.721Z,49.61
2019-02-28T17:22:45.660Z,50.05
2019-02-28T17:26:49.236Z,50.29
2019-02-28T17:30:56.768Z,50.80
2019-02-28T17:34:59.036Z,51.91
2019-02-28T17:39:01.609Z,52.08
2019-02-28T17:43:05.212Z,52.60
2019-02-28T17:47:20.223Z,52.87
2019-02-28T17:51:37.886Z,53.67
2019-02-28T17:55:53.184Z,54.03
2019-02-28T18:00:16.140Z,53.48
2019-02-28T18:04:46.413Z,54.05
2019-02-28T18:09:12.636Z,53.88
2019-02-28T18:13:44.551Z,54.27
2019-02-28T18:18:28.204Z,54.48
2019-02-28T18:22:52.870Z,54.52
2019-02-28T18:27:36.691Z,55.02
2019-02-28T18:31:38.676Z,55.20
2019-02-28T18:35:41.380Z,55.42
2019-02-28T18:39:44.595Z,55.77
2019-02-28T18:43:46.930Z,56.13
2019-02-28T18:47:48.874Z,56.27
2019-02-28T18:51:51.873Z,56.76
2019-02-28T18:55:53.871Z,57.03
2019-02-28T18:59:55.806Z,56.97
2019-02-28T19:03:57.740Z,57.03
2019-02-28T19:07:59.772Z,56.86
2019-02-28T19:12:01.821Z,57.09
2019-02-28T19:16:04.233Z,57.38
2019-02-28T19:20:10.165Z,57.74
2019-02-28T19:24:12.095Z,57.56
2019-02-28T19:28:14.008Z,57.59
2019-02-28T19:32:15.967Z,57.25
2019-02-28T19:36:17.910Z,56.91
2019-02-28T19:40:19.914Z,57.07
2019-02-28T19:44:21.883Z,57.30
2019-02-28T19:48:23.794Z,57.56
2019-02-28T19:52:25.823Z,57.69
2019-02-28T19:56:27.864Z,57.99
2019-02-28T20:00:29.872Z,58.39
2019-02-28T20:04:31.814Z,58.66
2019-02-28T20:08:33.726Z,58.61
2019-02-28T20:12:35.731Z,56.63
2019-02-28T20:16:37.739Z,55.54
2019-02-28T20:20:39.673Z,55.94
2019-02-28T20:24:41.685Z,55.98
2019-02-28T20:28:43.606Z,55.38
2019-02-28T20:32:45.791Z,54.87
2019-02-28T20:36:47.986Z,55.54
2019-02-28T20:40:49.971Z,56.20
2019-02-28T20:44:52.930Z,56.59
2019-02-28T20:48:54.862Z,57.41
2019-02-28T20:52:57.884Z,58.06
2019-02-28T20:56:59.820Z,58.72
2019-02-28T21:01:01.839Z,59.40
2019-02-28T21:05:04.744Z,60.04
2019-02-28T21:09:07.928Z,60.35
2019-02-28T21:13:11.458Z,60.47
2019-02-28T21:17:13.372Z,60.54
2019-02-28T21:21:15.288Z,60.71
2019-02-28T21:25:18.887Z,60.85
2019-02-28T21:29:20.860Z,61.15
2019-02-28T21:33:22.771Z,61.25
2019-02-28T21:37:24.940Z,61.21
2019-02-28T21:41:26.914Z,61.21
2019-02-28T21:45:30.000Z,61.59
2019-02-28T21:49:32.951Z,61.91
2019-02-28T21:53:34.869Z,62.21
2019-02-28T21:57:36.788Z,62.55
2019-02-28T22:01:38.763Z,62.61
2019-02-28T22:05:40.679Z,62.88
2019-02-28T22:09:42.574Z,62.98
2019-02-28T22:13:44.488Z,63.26
2019-02-28T22:17:46.398Z,63.77
2019-02-28T22:21:48.320Z,63.85
2019-02-28T22:25:50.247Z,63.77
2019-02-28T22:29:52.141Z,63.96
2019-02-28T22:33:59.885Z,63.89
2019-02-28T22:38:01.794Z,64.20
2019-02-28T22:42:03.777Z,64.25
2019-02-28T22:46:05.705Z,64.35
2019-02-28T22:50:09.911Z,64.53
2019-02-28T22:54:11.819Z,64.60
2019-02-28T22:58:13.733Z,64.87
2019-02-28T23:02:15.781Z,64.97
2019-02-28T23:06:17.749Z,65.13
2019-02-28T23:10:20.176Z,65.10
2019-02-28T23:14:22.082Z,65.15
2019-02-28T23:18:23.982Z,65.40
2019-02-28T23:22:25.893Z,65.85
2019-02-28T23:26:27.968Z,65.98
2019-02-28T23:31:09.243Z,66.04
2019-02-28T23:35:16.317Z,66.38
2019-02-28T23:39:18.221Z,66.47
2019-02-28T23:43:20.143Z,66.93
2019-02-28T23:47:22.047Z,66.97
2019-02-28T23:51:23.946Z,67.63
2019-02-28T23:55:25.846Z,67.97
2019-02-28T23:59:27.769Z,67.77
